sensor_id;sensor_type;location;lat;lon;timestamp;P1;durP1;ratioP1;P2;durP2;ratioP2
76995;SDS011;65929;49.062;10.338;2023-05-07T00:00:51;3.55;;;2.88;;
76995;SDS011;65929;49.062;10.338;2023-05-07T00:01:53;5.20;;;2.80;;
76995;SDS011;65929;49.062;10.338;2023-05-07T00:02:54;3.20;;;2.40;;
76995;SDS011;65929;49.062;10.338;2023-05-07T00:03:55;6.90;;;2.83;;
76995;SDS011;65929;49.062;10.338;2023-05-07T00:04:56;3.10;;;2.42;;
76995;SDS011;65929;49.062;10.338;2023-05-07T00:05:57;5.57;;;2.83;;
76995;SDS011;65929;49.062;10.338;2023-05-07T00:06:58;3.47;;;2.60;;
76995;SDS011;65929;49.062;10.338;2023-05-07T00:08:00;4.32;;;2.45;;
76995;SDS011;65929;49.062;10.338;2023-05-07T00:09:19;3.28;;;2.50;;
76995;SDS011;65929;49.062;10.338;2023-05-07T00:10:20;2.75;;;2.13;;
76995;SDS011;65929;49.062;10.338;2023-05-07T00:11:37;3.80;;;2.33;;
76995;SDS011;65929;49.062;10.338;2023-05-07T00:12:47;3.95;;;2.28;;
76995;SDS011;65929;49.062;10.338;2023-05-07T00:13:56;4.20;;;2.63;;
76995;SDS011;65929;49.062;10.338;2023-05-07T00:14:57;4.00;;;2.40;;
76995;SDS011;65929;49.062;10.338;2023-05-07T00:15:58;2.88;;;2.33;;
76995;SDS011;65929;49.062;10.338;2023-05-07T00:17:01;4.10;;;2.17;;
76995;SDS011;65929;49.062;10.338;2023-05-07T00:18:02;3.10;;;2.60;;
76995;SDS011;65929;49.062;10.338;2023-05-07T00:19:03;2.65;;;2.35;;
76995;SDS011;65929;49.062;10.338;2023-05-07T00:20:04;4.68;;;2.40;;
76995;SDS011;65929;49.062;10.338;2023-05-07T00:21:06;3.60;;;2.45;;
76995;SDS011;65929;49.062;10.338;2023-05-07T00:22:07;3.63;;;2.20;;
76995;SDS011;65929;49.062;10.338;2023-05-07T00:23:08;4.68;;;2.38;;
76995;SDS011;65929;49.062;10.338;2023-05-07T00:24:10;3.90;;;2.10;;
76995;SDS011;65929;49.062;10.338;2023-05-07T00:25:11;3.47;;;2.35;;
76995;SDS011;65929;49.062;10.338;2023-05-07T00:26:12;3.67;;;2.25;;
76995;SDS011;65929;49.062;10.338;2023-05-07T00:27:12;3.55;;;2.22;;
76995;SDS011;65929;49.062;10.338;2023-05-07T00:28:14;2.58;;;2.20;;
76995;SDS011;65929;49.062;10.338;2023-05-07T00:29:15;3.05;;;2.28;;
76995;SDS011;65929;49.062;10.338;2023-05-07T00:30:16;4.40;;;2.25;;
76995;SDS011;65929;49.062;10.338;2023-05-07T00:31:17;3.10;;;2.13;;
76995;SDS011;65929;49.062;10.338;2023-05-07T00:32:19;2.58;;;2.38;;
76995;SDS011;65929;49.062;10.338;2023-05-07T00:33:20;4.30;;;2.40;;
76995;SDS011;65929;49.062;10.338;2023-05-07T00:34:22;4.30;;;2.40;;
76995;SDS011;65929;49.062;10.338;2023-05-07T00:35:23;4.22;;;2.55;;
76995;SDS011;65929;49.062;10.338;2023-05-07T00:36:24;3.40;;;2.65;;
76995;SDS011;65929;49.062;10.338;2023-05-07T00:37:26;5.32;;;2.95;;
76995;SDS011;65929;49.062;10.338;2023-05-07T00:38:27;3.35;;;2.30;;
76995;SDS011;65929;49.062;10.338;2023-05-07T00:39:28;4.18;;;2.13;;
76995;SDS011;65929;49.062;10.338;2023-05-07T00:40:29;3.00;;;2.45;;
76995;SDS011;65929;49.062;10.338;2023-05-07T00:41:30;3.20;;;2.50;;
76995;SDS011;65929;49.062;10.338;2023-05-07T00:42:31;3.17;;;2.28;;
76995;SDS011;65929;49.062;10.338;2023-05-07T00:43:32;3.03;;;2.53;;
76995;SDS011;65929;49.062;10.338;2023-05-07T00:44:33;4.88;;;2.35;;
76995;SDS011;65929;49.062;10.338;2023-05-07T00:45:34;4.15;;;2.33;;
76995;SDS011;65929;49.062;10.338;2023-05-07T00:46:35;2.63;;;2.05;;
76995;SDS011;65929;49.062;10.338;2023-05-07T00:47:37;2.78;;;2.15;;
76995;SDS011;65929;49.062;10.338;2023-05-07T00:48:39;2.90;;;2.40;;
76995;SDS011;65929;49.062;10.338;2023-05-07T00:49:41;2.10;;;1.88;;
76995;SDS011;65929;49.062;10.338;2023-05-07T00:50:43;3.58;;;3.00;;
76995;SDS011;65929;49.062;10.338;2023-05-07T00:51:44;3.35;;;2.38;;
76995;SDS011;65929;49.062;10.338;2023-05-07T00:52:45;3.55;;;2.30;;
76995;SDS011;65929;49.062;10.338;2023-05-07T00:53:47;2.80;;;2.20;;
76995;SDS011;65929;49.062;10.338;2023-05-07T00:54:48;2.63;;;2.42;;
76995;SDS011;65929;49.062;10.338;2023-05-07T00:55:49;2.58;;;2.38;;
76995;SDS011;65929;49.062;10.338;2023-05-07T00:56:50;3.83;;;2.40;;
76995;SDS011;65929;49.062;10.338;2023-05-07T00:57:51;3.20;;;2.45;;
76995;SDS011;65929;49.062;10.338;2023-05-07T00:58:52;3.22;;;2.45;;
76995;SDS011;65929;49.062;10.338;2023-05-07T00:59:54;4.65;;;2.30;;
76995;SDS011;65929;49.062;10.338;2023-05-07T01:00:55;3.00;;;2.60;;
76995;SDS011;65929;49.062;10.338;2023-05-07T01:01:56;4.28;;;2.78;;
76995;SDS011;65929;49.062;10.338;2023-05-07T01:02:58;3.25;;;2.45;;
76995;SDS011;65929;49.062;10.338;2023-05-07T01:03:59;3.55;;;2.33;;
76995;SDS011;65929;49.062;10.338;2023-05-07T01:05:01;3.03;;;2.30;;
76995;SDS011;65929;49.062;10.338;2023-05-07T01:06:03;2.50;;;2.30;;
76995;SDS011;65929;49.062;10.338;2023-05-07T01:07:07;3.15;;;2.60;;
76995;SDS011;65929;49.062;10.338;2023-05-07T01:08:08;2.80;;;2.40;;
76995;SDS011;65929;49.062;10.338;2023-05-07T01:09:10;3.03;;;2.35;;
76995;SDS011;65929;49.062;10.338;2023-05-07T01:10:12;3.10;;;2.80;;
76995;SDS011;65929;49.062;10.338;2023-05-07T01:11:13;3.03;;;2.33;;
76995;SDS011;65929;49.062;10.338;2023-05-07T01:12:15;4.65;;;2.70;;
76995;SDS011;65929;49.062;10.338;2023-05-07T01:13:16;3.78;;;2.58;;
76995;SDS011;65929;49.062;10.338;2023-05-07T01:14:18;3.88;;;2.30;;
76995;SDS011;65929;49.062;10.338;2023-05-07T01:15:20;2.78;;;2.50;;
76995;SDS011;65929;49.062;10.338;2023-05-07T01:16:21;2.67;;;2.42;;
76995;SDS011;65929;49.062;10.338;2023-05-07T01:17:22;2.85;;;2.22;;
76995;SDS011;65929;49.062;10.338;2023-05-07T01:18:25;2.90;;;2.30;;
76995;SDS011;65929;49.062;10.338;2023-05-07T01:19:26;3.80;;;2.50;;
76995;SDS011;65929;49.062;10.338;2023-05-07T01:20:30;4.00;;;2.53;;
76995;SDS011;65929;49.062;10.338;2023-05-07T01:21:32;3.33;;;2.67;;
76995;SDS011;65929;49.062;10.338;2023-05-07T01:22:37;3.60;;;2.50;;
76995;SDS011;65929;49.062;10.338;2023-05-07T01:23:38;3.08;;;2.38;;
76995;SDS011;65929;49.062;10.338;2023-05-07T01:24:40;3.58;;;2.70;;
76995;SDS011;65929;49.062;10.338;2023-05-07T01:25:42;3.60;;;2.65;;
76995;SDS011;65929;49.062;10.338;2023-05-07T01:26:43;5.85;;;2.60;;
76995;SDS011;65929;49.062;10.338;2023-05-07T01:27:44;3.35;;;2.47;;
76995;SDS011;65929;49.062;10.338;2023-05-07T01:28:46;3.35;;;2.47;;
76995;SDS011;65929;49.062;10.338;2023-05-07T01:29:46;3.20;;;2.60;;
76995;SDS011;65929;49.062;10.338;2023-05-07T01:30:48;3.53;;;2.30;;
76995;SDS011;65929;49.062;10.338;2023-05-07T01:31:52;3.40;;;2.63;;
76995;SDS011;65929;49.062;10.338;2023-05-07T01:32:57;3.30;;;2.55;;
76995;SDS011;65929;49.062;10.338;2023-05-07T01:34:02;3.65;;;2.28;;
76995;SDS011;65929;49.062;10.338;2023-05-07T01:35:07;3.08;;;2.33;;
76995;SDS011;65929;49.062;10.338;2023-05-07T01:36:13;3.55;;;2.60;;
76995;SDS011;65929;49.062;10.338;2023-05-07T01:37:15;3.15;;;2.40;;
76995;SDS011;65929;49.062;10.338;2023-05-07T01:38:18;3.03;;;2.17;;
76995;SDS011;65929;49.062;10.338;2023-05-07T01:39:21;4.25;;;2.67;;
76995;SDS011;65929;49.062;10.338;2023-05-07T01:40:23;3.40;;;2.40;;
76995;SDS011;65929;49.062;10.338;2023-05-07T01:41:26;3.38;;;2.38;;
76995;SDS011;65929;49.062;10.338;2023-05-07T01:42:27;3.20;;;2.20;;
76995;SDS011;65929;49.062;10.338;2023-05-07T01:43:29;5.20;;;2.35;;
76995;SDS011;65929;49.062;10.338;2023-05-07T01:44:31;3.28;;;2.45;;
76995;SDS011;65929;49.062;10.338;2023-05-07T01:45:32;3.13;;;2.35;;
76995;SDS011;65929;49.062;10.338;2023-05-07T01:46:34;4.35;;;2.85;;
76995;SDS011;65929;49.062;10.338;2023-05-07T01:47:35;4.50;;;2.30;;
76995;SDS011;65929;49.062;10.338;2023-05-07T01:48:37;3.75;;;2.65;;
76995;SDS011;65929;49.062;10.338;2023-05-07T01:49:38;2.50;;;2.15;;
76995;SDS011;65929;49.062;10.338;2023-05-07T01:50:39;5.28;;;2.58;;
76995;SDS011;65929;49.062;10.338;2023-05-07T01:51:41;3.10;;;2.58;;
76995;SDS011;65929;49.062;10.338;2023-05-07T01:52:43;3.10;;;2.63;;
76995;SDS011;65929;49.062;10.338;2023-05-07T01:53:46;3.75;;;2.90;;
76995;SDS011;65929;49.062;10.338;2023-05-07T01:54:50;3.30;;;2.60;;
76995;SDS011;65929;49.062;10.338;2023-05-07T01:55:51;2.60;;;2.40;;
76995;SDS011;65929;49.062;10.338;2023-05-07T01:56:52;3.80;;;2.58;;
76995;SDS011;65929;49.062;10.338;2023-05-07T01:57:53;4.15;;;2.17;;
76995;SDS011;65929;49.062;10.338;2023-05-07T01:58:54;2.97;;;2.58;;
76995;SDS011;65929;49.062;10.338;2023-05-07T01:59:55;3.40;;;2.80;;
76995;SDS011;65929;49.062;10.338;2023-05-07T02:00:56;3.45;;;2.90;;
76995;SDS011;65929;49.062;10.338;2023-05-07T02:01:57;4.25;;;2.40;;
76995;SDS011;65929;49.062;10.338;2023-05-07T02:02:58;2.75;;;2.38;;
76995;SDS011;65929;49.062;10.338;2023-05-07T02:03:59;4.28;;;2.80;;
76995;SDS011;65929;49.062;10.338;2023-05-07T02:05:00;5.38;;;2.90;;
76995;SDS011;65929;49.062;10.338;2023-05-07T02:06:01;5.22;;;3.35;;
76995;SDS011;65929;49.062;10.338;2023-05-07T02:07:03;7.03;;;2.65;;
76995;SDS011;65929;49.062;10.338;2023-05-07T02:08:04;5.50;;;2.47;;
76995;SDS011;65929;49.062;10.338;2023-05-07T02:09:06;4.05;;;2.53;;
76995;SDS011;65929;49.062;10.338;2023-05-07T02:10:09;3.85;;;2.67;;
76995;SDS011;65929;49.062;10.338;2023-05-07T02:11:10;2.60;;;2.30;;
76995;SDS011;65929;49.062;10.338;2023-05-07T02:12:11;3.83;;;2.63;;
76995;SDS011;65929;49.062;10.338;2023-05-07T02:13:12;3.58;;;2.70;;
76995;SDS011;65929;49.062;10.338;2023-05-07T02:14:13;4.13;;;2.70;;
76995;SDS011;65929;49.062;10.338;2023-05-07T02:15:14;3.03;;;2.55;;
76995;SDS011;65929;49.062;10.338;2023-05-07T02:16:14;4.55;;;2.72;;
76995;SDS011;65929;49.062;10.338;2023-05-07T02:17:15;3.28;;;2.60;;
76995;SDS011;65929;49.062;10.338;2023-05-07T02:18:16;3.35;;;2.50;;
76995;SDS011;65929;49.062;10.338;2023-05-07T02:19:18;3.20;;;2.10;;
76995;SDS011;65929;49.062;10.338;2023-05-07T02:20:21;3.38;;;2.70;;
76995;SDS011;65929;49.062;10.338;2023-05-07T02:21:22;4.65;;;2.58;;
76995;SDS011;65929;49.062;10.338;2023-05-07T02:22:23;4.10;;;2.60;;
76995;SDS011;65929;49.062;10.338;2023-05-07T02:23:24;2.58;;;2.35;;
76995;SDS011;65929;49.062;10.338;2023-05-07T02:24:26;4.38;;;2.40;;
76995;SDS011;65929;49.062;10.338;2023-05-07T02:25:27;3.05;;;2.25;;
76995;SDS011;65929;49.062;10.338;2023-05-07T02:26:29;3.03;;;2.30;;
76995;SDS011;65929;49.062;10.338;2023-05-07T02:27:30;2.97;;;2.35;;
76995;SDS011;65929;49.062;10.338;2023-05-07T02:28:31;2.25;;;2.05;;
76995;SDS011;65929;49.062;10.338;2023-05-07T02:29:32;3.92;;;2.80;;
76995;SDS011;65929;49.062;10.338;2023-05-07T02:30:33;3.00;;;2.50;;
76995;SDS011;65929;49.062;10.338;2023-05-07T02:31:34;5.00;;;2.60;;
76995;SDS011;65929;49.062;10.338;2023-05-07T02:32:35;2.63;;;2.42;;
76995;SDS011;65929;49.062;10.338;2023-05-07T02:33:36;5.25;;;2.58;;
76995;SDS011;65929;49.062;10.338;2023-05-07T02:34:36;3.00;;;2.58;;
76995;SDS011;65929;49.062;10.338;2023-05-07T02:35:37;2.75;;;2.55;;
76995;SDS011;65929;49.062;10.338;2023-05-07T02:36:38;3.17;;;2.67;;
76995;SDS011;65929;49.062;10.338;2023-05-07T02:37:40;2.92;;;2.53;;
76995;SDS011;65929;49.062;10.338;2023-05-07T02:38:40;3.00;;;2.45;;
76995;SDS011;65929;49.062;10.338;2023-05-07T02:39:43;3.38;;;2.33;;
76995;SDS011;65929;49.062;10.338;2023-05-07T02:40:44;4.97;;;2.50;;
76995;SDS011;65929;49.062;10.338;2023-05-07T02:41:45;3.47;;;2.20;;
76995;SDS011;65929;49.062;10.338;2023-05-07T02:42:46;3.33;;;2.45;;
76995;SDS011;65929;49.062;10.338;2023-05-07T02:43:46;3.42;;;2.58;;
76995;SDS011;65929;49.062;10.338;2023-05-07T02:44:47;4.20;;;2.00;;
76995;SDS011;65929;49.062;10.338;2023-05-07T02:45:48;2.63;;;2.40;;
76995;SDS011;65929;49.062;10.338;2023-05-07T02:46:49;3.65;;;2.70;;
76995;SDS011;65929;49.062;10.338;2023-05-07T02:47:50;3.70;;;2.60;;
76995;SDS011;65929;49.062;10.338;2023-05-07T02:48:51;2.60;;;2.40;;
76995;SDS011;65929;49.062;10.338;2023-05-07T02:49:52;3.92;;;2.35;;
76995;SDS011;65929;49.062;10.338;2023-05-07T02:50:53;4.05;;;3.00;;
76995;SDS011;65929;49.062;10.338;2023-05-07T02:51:54;3.05;;;2.50;;
76995;SDS011;65929;49.062;10.338;2023-05-07T02:52:55;2.78;;;2.30;;
76995;SDS011;65929;49.062;10.338;2023-05-07T02:53:56;3.10;;;2.63;;
76995;SDS011;65929;49.062;10.338;2023-05-07T02:54:59;3.08;;;2.75;;
76995;SDS011;65929;49.062;10.338;2023-05-07T02:56:00;3.30;;;2.75;;
76995;SDS011;65929;49.062;10.338;2023-05-07T02:57:01;3.28;;;2.38;;
76995;SDS011;65929;49.062;10.338;2023-05-07T02:58:03;3.90;;;2.80;;
76995;SDS011;65929;49.062;10.338;2023-05-07T02:59:04;4.95;;;2.50;;
76995;SDS011;65929;49.062;10.338;2023-05-07T03:00:14;4.88;;;2.67;;
76995;SDS011;65929;49.062;10.338;2023-05-07T03:01:16;3.17;;;2.75;;
76995;SDS011;65929;49.062;10.338;2023-05-07T03:02:17;3.25;;;2.67;;
76995;SDS011;65929;49.062;10.338;2023-05-07T03:03:18;3.50;;;2.88;;
76995;SDS011;65929;49.062;10.338;2023-05-07T03:04:19;3.28;;;2.70;;
76995;SDS011;65929;49.062;10.338;2023-05-07T03:05:20;5.10;;;2.65;;
76995;SDS011;65929;49.062;10.338;2023-05-07T03:06:21;3.40;;;2.83;;
76995;SDS011;65929;49.062;10.338;2023-05-07T03:07:22;3.40;;;2.63;;
76995;SDS011;65929;49.062;10.338;2023-05-07T03:08:23;4.88;;;2.70;;
76995;SDS011;65929;49.062;10.338;2023-05-07T03:09:24;3.97;;;3.03;;
76995;SDS011;65929;49.062;10.338;2023-05-07T03:10:27;4.80;;;3.00;;
76995;SDS011;65929;49.062;10.338;2023-05-07T03:11:28;3.63;;;2.58;;
76995;SDS011;65929;49.062;10.338;2023-05-07T03:12:29;4.68;;;2.85;;
76995;SDS011;65929;49.062;10.338;2023-05-07T03:13:31;4.72;;;3.10;;
76995;SDS011;65929;49.062;10.338;2023-05-07T03:14:32;4.07;;;2.75;;
76995;SDS011;65929;49.062;10.338;2023-05-07T03:15:33;3.30;;;2.70;;
76995;SDS011;65929;49.062;10.338;2023-05-07T03:16:34;2.40;;;2.20;;
76995;SDS011;65929;49.062;10.338;2023-05-07T03:17:35;3.30;;;2.80;;
76995;SDS011;65929;49.062;10.338;2023-05-07T03:18:36;3.42;;;2.33;;
76995;SDS011;65929;49.062;10.338;2023-05-07T03:19:37;2.83;;;2.53;;
76995;SDS011;65929;49.062;10.338;2023-05-07T03:20:38;3.40;;;2.67;;
76995;SDS011;65929;49.062;10.338;2023-05-07T03:21:39;4.85;;;2.80;;
76995;SDS011;65929;49.062;10.338;2023-05-07T03:22:40;2.92;;;2.60;;
76995;SDS011;65929;49.062;10.338;2023-05-07T03:23:40;3.50;;;2.55;;
76995;SDS011;65929;49.062;10.338;2023-05-07T03:24:41;3.22;;;2.53;;
76995;SDS011;65929;49.062;10.338;2023-05-07T03:25:44;4.03;;;2.65;;
76995;SDS011;65929;49.062;10.338;2023-05-07T03:26:45;2.92;;;2.60;;
76995;SDS011;65929;49.062;10.338;2023-05-07T03:27:46;2.67;;;2.40;;
76995;SDS011;65929;49.062;10.338;2023-05-07T03:28:46;2.97;;;2.70;;
76995;SDS011;65929;49.062;10.338;2023-05-07T03:29:47;4.85;;;2.90;;
76995;SDS011;65929;49.062;10.338;2023-05-07T03:30:48;5.30;;;2.65;;
76995;SDS011;65929;49.062;10.338;2023-05-07T03:31:49;2.83;;;2.53;;
76995;SDS011;65929;49.062;10.338;2023-05-07T03:32:51;3.35;;;2.70;;
76995;SDS011;65929;49.062;10.338;2023-05-07T03:33:52;3.58;;;2.75;;
76995;SDS011;65929;49.062;10.338;2023-05-07T03:34:53;6.72;;;2.60;;
76995;SDS011;65929;49.062;10.338;2023-05-07T03:35:55;3.55;;;2.70;;
76995;SDS011;65929;49.062;10.338;2023-05-07T03:36:56;2.65;;;2.38;;
76995;SDS011;65929;49.062;10.338;2023-05-07T03:37:57;3.15;;;2.63;;
76995;SDS011;65929;49.062;10.338;2023-05-07T03:38:58;4.47;;;2.88;;
76995;SDS011;65929;49.062;10.338;2023-05-07T03:39:59;2.92;;;2.65;;
76995;SDS011;65929;49.062;10.338;2023-05-07T03:41:01;3.85;;;2.97;;
76995;SDS011;65929;49.062;10.338;2023-05-07T03:42:02;3.38;;;2.58;;
76995;SDS011;65929;49.062;10.338;2023-05-07T03:43:03;4.25;;;2.80;;
76995;SDS011;65929;49.062;10.338;2023-05-07T03:44:04;4.72;;;3.67;;
76995;SDS011;65929;49.062;10.338;2023-05-07T03:45:06;5.30;;;2.97;;
76995;SDS011;65929;49.062;10.338;2023-05-07T03:46:08;3.67;;;2.70;;
76995;SDS011;65929;49.062;10.338;2023-05-07T03:47:09;4.05;;;2.88;;
76995;SDS011;65929;49.062;10.338;2023-05-07T03:48:10;5.47;;;2.92;;
76995;SDS011;65929;49.062;10.338;2023-05-07T03:49:11;3.15;;;2.70;;
76995;SDS011;65929;49.062;10.338;2023-05-07T03:50:12;3.47;;;2.90;;
76995;SDS011;65929;49.062;10.338;2023-05-07T03:51:13;5.85;;;2.97;;
76995;SDS011;65929;49.062;10.338;2023-05-07T03:52:14;3.97;;;2.83;;
76995;SDS011;65929;49.062;10.338;2023-05-07T03:53:15;3.80;;;2.90;;
76995;SDS011;65929;49.062;10.338;2023-05-07T03:54:16;5.97;;;2.88;;
76995;SDS011;65929;49.062;10.338;2023-05-07T03:55:17;3.35;;;2.92;;
76995;SDS011;65929;49.062;10.338;2023-05-07T03:56:19;4.70;;;3.10;;
76995;SDS011;65929;49.062;10.338;2023-05-07T03:57:21;3.60;;;2.88;;
76995;SDS011;65929;49.062;10.338;2023-05-07T03:58:22;3.53;;;3.13;;
76995;SDS011;65929;49.062;10.338;2023-05-07T03:59:22;3.95;;;3.22;;
76995;SDS011;65929;49.062;10.338;2023-05-07T04:00:23;3.33;;;2.97;;
76995;SDS011;65929;49.062;10.338;2023-05-07T04:01:25;7.40;;;3.17;;
76995;SDS011;65929;49.062;10.338;2023-05-07T04:02:25;3.75;;;3.00;;
76995;SDS011;65929;49.062;10.338;2023-05-07T04:03:26;4.85;;;3.10;;
76995;SDS011;65929;49.062;10.338;2023-05-07T04:04:27;3.80;;;2.80;;
76995;SDS011;65929;49.062;10.338;2023-05-07T04:05:32;4.45;;;3.20;;
76995;SDS011;65929;49.062;10.338;2023-05-07T04:06:33;5.75;;;3.08;;
76995;SDS011;65929;49.062;10.338;2023-05-07T04:07:34;4.03;;;3.15;;
76995;SDS011;65929;49.062;10.338;2023-05-07T04:08:35;3.65;;;2.80;;
76995;SDS011;65929;49.062;10.338;2023-05-07T04:09:36;4.80;;;2.92;;
76995;SDS011;65929;49.062;10.338;2023-05-07T04:10:37;5.22;;;3.28;;
76995;SDS011;65929;49.062;10.338;2023-05-07T04:11:40;3.92;;;3.00;;
76995;SDS011;65929;49.062;10.338;2023-05-07T04:12:40;4.43;;;3.03;;
76995;SDS011;65929;49.062;10.338;2023-05-07T04:13:41;4.60;;;2.83;;
76995;SDS011;65929;49.062;10.338;2023-05-07T04:14:42;3.97;;;2.70;;
76995;SDS011;65929;49.062;10.338;2023-05-07T04:15:43;5.38;;;2.83;;
76995;SDS011;65929;49.062;10.338;2023-05-07T04:16:46;3.15;;;2.85;;
76995;SDS011;65929;49.062;10.338;2023-05-07T04:17:47;4.75;;;2.97;;
76995;SDS011;65929;49.062;10.338;2023-05-07T04:18:48;4.22;;;3.03;;
76995;SDS011;65929;49.062;10.338;2023-05-07T04:19:49;3.38;;;2.72;;
76995;SDS011;65929;49.062;10.338;2023-05-07T04:20:50;3.90;;;2.90;;
76995;SDS011;65929;49.062;10.338;2023-05-07T04:21:51;4.60;;;3.03;;
76995;SDS011;65929;49.062;10.338;2023-05-07T04:22:52;3.85;;;2.85;;
76995;SDS011;65929;49.062;10.338;2023-05-07T04:23:53;4.28;;;2.92;;
76995;SDS011;65929;49.062;10.338;2023-05-07T04:24:54;3.83;;;3.00;;
76995;SDS011;65929;49.062;10.338;2023-05-07T04:25:55;4.25;;;3.10;;
76995;SDS011;65929;49.062;10.338;2023-05-07T04:26:58;6.18;;;3.03;;
76995;SDS011;65929;49.062;10.338;2023-05-07T04:27:59;3.15;;;2.65;;
76995;SDS011;65929;49.062;10.338;2023-05-07T04:29:00;4.03;;;2.80;;
76995;SDS011;65929;49.062;10.338;2023-05-07T04:30:01;2.60;;;2.40;;
76995;SDS011;65929;49.062;10.338;2023-05-07T04:31:02;3.22;;;2.78;;
76995;SDS011;65929;49.062;10.338;2023-05-07T04:32:04;5.57;;;3.00;;
76995;SDS011;65929;49.062;10.338;2023-05-07T04:33:05;3.75;;;3.05;;
76995;SDS011;65929;49.062;10.338;2023-05-07T04:34:06;3.92;;;3.00;;
76995;SDS011;65929;49.062;10.338;2023-05-07T04:35:09;3.70;;;2.75;;
76995;SDS011;65929;49.062;10.338;2023-05-07T04:36:10;4.50;;;2.88;;
76995;SDS011;65929;49.062;10.338;2023-05-07T04:37:11;3.03;;;2.50;;
76995;SDS011;65929;49.062;10.338;2023-05-07T04:38:12;3.22;;;2.45;;
76995;SDS011;65929;49.062;10.338;2023-05-07T04:39:13;3.83;;;2.70;;
76995;SDS011;65929;49.062;10.338;2023-05-07T04:40:14;3.47;;;2.70;;
76995;SDS011;65929;49.062;10.338;2023-05-07T04:41:16;4.03;;;2.85;;
76995;SDS011;65929;49.062;10.338;2023-05-07T04:42:18;4.35;;;2.60;;
76995;SDS011;65929;49.062;10.338;2023-05-07T04:43:19;3.25;;;2.60;;
76995;SDS011;65929;49.062;10.338;2023-05-07T04:44:20;3.22;;;2.50;;
76995;SDS011;65929;49.062;10.338;2023-05-07T04:45:21;3.72;;;2.90;;
76995;SDS011;65929;49.062;10.338;2023-05-07T04:46:22;3.15;;;2.60;;
76995;SDS011;65929;49.062;10.338;2023-05-07T04:47:24;3.80;;;2.65;;
76995;SDS011;65929;49.062;10.338;2023-05-07T04:48:25;2.85;;;2.60;;
76995;SDS011;65929;49.062;10.338;2023-05-07T04:49:26;5.85;;;3.08;;
76995;SDS011;65929;49.062;10.338;2023-05-07T04:50:27;4.20;;;3.17;;
76995;SDS011;65929;49.062;10.338;2023-05-07T04:51:28;2.92;;;2.63;;
76995;SDS011;65929;49.062;10.338;2023-05-07T04:52:29;3.50;;;2.65;;
76995;SDS011;65929;49.062;10.338;2023-05-07T04:53:30;3.35;;;2.80;;
76995;SDS011;65929;49.062;10.338;2023-05-07T04:54:31;2.60;;;2.40;;
76995;SDS011;65929;49.062;10.338;2023-05-07T04:55:32;3.47;;;2.67;;
76995;SDS011;65929;49.062;10.338;2023-05-07T04:56:33;3.05;;;2.75;;
76995;SDS011;65929;49.062;10.338;2023-05-07T04:57:35;3.65;;;2.38;;
76995;SDS011;65929;49.062;10.338;2023-05-07T04:58:36;3.33;;;2.92;;
76995;SDS011;65929;49.062;10.338;2023-05-07T04:59:37;3.88;;;2.50;;
76995;SDS011;65929;49.062;10.338;2023-05-07T05:00:38;3.42;;;2.50;;
76995;SDS011;65929;49.062;10.338;2023-05-07T05:01:42;3.10;;;2.45;;
76995;SDS011;65929;49.062;10.338;2023-05-07T05:02:43;3.92;;;2.70;;
76995;SDS011;65929;49.062;10.338;2023-05-07T05:03:44;3.10;;;2.50;;
76995;SDS011;65929;49.062;10.338;2023-05-07T05:04:45;3.35;;;2.60;;
76995;SDS011;65929;49.062;10.338;2023-05-07T05:05:46;3.17;;;2.88;;
76995;SDS011;65929;49.062;10.338;2023-05-07T05:06:49;2.92;;;2.70;;
76995;SDS011;65929;49.062;10.338;2023-05-07T05:07:50;3.55;;;2.58;;
76995;SDS011;65929;49.062;10.338;2023-05-07T05:08:51;3.03;;;2.65;;
76995;SDS011;65929;49.062;10.338;2023-05-07T05:09:52;3.13;;;2.83;;
76995;SDS011;65929;49.062;10.338;2023-05-07T05:10:53;3.33;;;2.75;;
76995;SDS011;65929;49.062;10.338;2023-05-07T05:11:54;3.30;;;2.22;;
76995;SDS011;65929;49.062;10.338;2023-05-07T05:12:57;3.08;;;2.38;;
76995;SDS011;65929;49.062;10.338;2023-05-07T05:13:58;3.75;;;2.90;;
76995;SDS011;65929;49.062;10.338;2023-05-07T05:15:00;2.90;;;2.60;;
76995;SDS011;65929;49.062;10.338;2023-05-07T05:16:01;4.38;;;3.20;;
76995;SDS011;65929;49.062;10.338;2023-05-07T05:17:02;3.30;;;2.65;;
76995;SDS011;65929;49.062;10.338;2023-05-07T05:18:03;4.95;;;3.35;;
76995;SDS011;65929;49.062;10.338;2023-05-07T05:19:04;3.33;;;3.03;;
76995;SDS011;65929;49.062;10.338;2023-05-07T05:20:05;4.82;;;3.45;;
76995;SDS011;65929;49.062;10.338;2023-05-07T05:21:07;3.85;;;3.45;;
76995;SDS011;65929;49.062;10.338;2023-05-07T05:22:08;7.63;;;4.43;;
76995;SDS011;65929;49.062;10.338;2023-05-07T05:23:09;4.00;;;3.60;;
76995;SDS011;65929;49.062;10.338;2023-05-07T05:24:09;4.25;;;3.70;;
76995;SDS011;65929;49.062;10.338;2023-05-07T05:25:10;4.30;;;3.50;;
76995;SDS011;65929;49.062;10.338;2023-05-07T05:26:11;4.00;;;3.53;;
76995;SDS011;65929;49.062;10.338;2023-05-07T05:27:12;5.10;;;3.60;;
76995;SDS011;65929;49.062;10.338;2023-05-07T05:28:15;4.95;;;3.70;;
76995;SDS011;65929;49.062;10.338;2023-05-07T05:29:15;5.75;;;4.22;;
76995;SDS011;65929;49.062;10.338;2023-05-07T05:30:16;7.18;;;3.65;;
76995;SDS011;65929;49.062;10.338;2023-05-07T05:31:17;6.70;;;3.85;;
76995;SDS011;65929;49.062;10.338;2023-05-07T05:32:18;4.13;;;3.55;;
76995;SDS011;65929;49.062;10.338;2023-05-07T05:33:19;4.07;;;3.38;;
76995;SDS011;65929;49.062;10.338;2023-05-07T05:34:20;4.53;;;3.53;;
76995;SDS011;65929;49.062;10.338;2023-05-07T05:35:22;6.30;;;3.47;;
76995;SDS011;65929;49.062;10.338;2023-05-07T05:36:23;4.28;;;3.72;;
76995;SDS011;65929;49.062;10.338;2023-05-07T05:37:24;4.00;;;3.60;;
76995;SDS011;65929;49.062;10.338;2023-05-07T05:38:25;4.10;;;3.45;;
76995;SDS011;65929;49.062;10.338;2023-05-07T05:39:26;5.30;;;3.50;;
76995;SDS011;65929;49.062;10.338;2023-05-07T05:40:27;5.43;;;3.75;;
76995;SDS011;65929;49.062;10.338;2023-05-07T05:41:28;4.45;;;3.72;;
76995;SDS011;65929;49.062;10.338;2023-05-07T05:42:30;4.75;;;3.72;;
76995;SDS011;65929;49.062;10.338;2023-05-07T05:43:32;7.05;;;4.32;;
76995;SDS011;65929;49.062;10.338;2023-05-07T05:44:33;4.97;;;3.67;;
76995;SDS011;65929;49.062;10.338;2023-05-07T05:45:34;5.03;;;3.80;;
76995;SDS011;65929;49.062;10.338;2023-05-07T05:46:35;4.45;;;3.80;;
76995;SDS011;65929;49.062;10.338;2023-05-07T05:47:37;4.55;;;4.05;;
76995;SDS011;65929;49.062;10.338;2023-05-07T05:48:38;5.05;;;4.07;;
76995;SDS011;65929;49.062;10.338;2023-05-07T05:49:39;7.72;;;4.60;;
76995;SDS011;65929;49.062;10.338;2023-05-07T05:50:41;5.63;;;3.80;;
76995;SDS011;65929;49.062;10.338;2023-05-07T05:51:42;4.72;;;3.75;;
76995;SDS011;65929;49.062;10.338;2023-05-07T05:52:43;6.72;;;4.40;;
76995;SDS011;65929;49.062;10.338;2023-05-07T05:53:44;4.43;;;3.85;;
76995;SDS011;65929;49.062;10.338;2023-05-07T05:54:45;4.28;;;3.72;;
76995;SDS011;65929;49.062;10.338;2023-05-07T05:55:46;5.00;;;3.75;;
76995;SDS011;65929;49.062;10.338;2023-05-07T05:56:47;4.13;;;3.72;;
76995;SDS011;65929;49.062;10.338;2023-05-07T05:57:48;4.57;;;3.38;;
76995;SDS011;65929;49.062;10.338;2023-05-07T05:58:51;4.55;;;3.88;;
76995;SDS011;65929;49.062;10.338;2023-05-07T05:59:52;5.32;;;3.55;;
76995;SDS011;65929;49.062;10.338;2023-05-07T06:00:53;4.60;;;3.90;;
76995;SDS011;65929;49.062;10.338;2023-05-07T06:01:55;4.10;;;3.30;;
76995;SDS011;65929;49.062;10.338;2023-05-07T06:02:55;6.45;;;4.30;;
76995;SDS011;65929;49.062;10.338;2023-05-07T06:03:56;5.40;;;4.18;;
76995;SDS011;65929;49.062;10.338;2023-05-07T06:04:57;4.65;;;3.47;;